sensor_id;sensor_type;location;lat;lon;timestamp;P1;durP1;ratioP1;P2;durP2;ratioP2
19193;SDS011;9729;52.296;13.260;2022-12-07T00:01:14;27.63;;;13.97;;
19193;SDS011;9729;52.296;13.260;2022-12-07T00:03:42;24.00;;;11.63;;
19193;SDS011;9729;52.296;13.260;2022-12-07T00:06:10;24.73;;;12.80;;
19193;SDS011;9729;52.296;13.260;2022-12-07T00:08:37;23.93;;;12.37;;
19193;SDS011;9729;52.296;13.260;2022-12-07T00:11:04;20.27;;;10.33;;
19193;SDS011;9729;52.296;13.260;2022-12-07T00:13:33;19.93;;;11.50;;
19193;SDS011;9729;52.296;13.260;2022-12-07T00:16:00;20.47;;;11.10;;
19193;SDS011;9729;52.296;13.260;2022-12-07T00:18:27;19.17;;;11.33;;
19193;SDS011;9729;52.296;13.260;2022-12-07T00:20:58;17.33;;;11.00;;
19193;SDS011;9729;52.296;13.260;2022-12-07T00:23:25;15.77;;;9.30;;
19193;SDS011;9729;52.296;13.260;2022-12-07T00:25:51;19.57;;;9.93;;
19193;SDS011;9729;52.296;13.260;2022-12-07T00:28:17;16.03;;;10.23;;
19193;SDS011;9729;52.296;13.260;2022-12-07T00:30:45;16.53;;;9.37;;
19193;SDS011;9729;52.296;13.260;2022-12-07T00:33:11;16.87;;;8.93;;
19193;SDS011;9729;52.296;13.260;2022-12-07T00:35:38;14.53;;;8.33;;
19193;SDS011;9729;52.296;13.260;2022-12-07T00:38:04;18.60;;;9.43;;
19193;SDS011;9729;52.296;13.260;2022-12-07T00:40:30;14.47;;;7.77;;
19193;SDS011;9729;52.296;13.260;2022-12-07T00:42:57;13.07;;;8.17;;
19193;SDS011;9729;52.296;13.260;2022-12-07T00:45:23;13.57;;;8.17;;
19193;SDS011;9729;52.296;13.260;2022-12-07T00:47:51;15.27;;;8.53;;
19193;SDS011;9729;52.296;13.260;2022-12-07T00:50:17;13.20;;;7.47;;
19193;SDS011;9729;52.296;13.260;2022-12-07T00:52:43;12.77;;;7.97;;
19193;SDS011;9729;52.296;13.260;2022-12-07T00:55:10;11.80;;;8.23;;
19193;SDS011;9729;52.296;13.260;2022-12-07T00:57:36;12.10;;;7.40;;
19193;SDS011;9729;52.296;13.260;2022-12-07T01:00:02;14.20;;;7.80;;
19193;SDS011;9729;52.296;13.260;2022-12-07T01:02:29;14.10;;;8.33;;
19193;SDS011;9729;52.296;13.260;2022-12-07T01:04:57;11.93;;;7.17;;
19193;SDS011;9729;52.296;13.260;2022-12-07T01:07:23;12.83;;;7.10;;
19193;SDS011;9729;52.296;13.260;2022-12-07T01:09:49;12.70;;;7.00;;
19193;SDS011;9729;52.296;13.260;2022-12-07T01:12:16;12.57;;;7.23;;
19193;SDS011;9729;52.296;13.260;2022-12-07T01:14:42;12.33;;;6.17;;
19193;SDS011;9729;52.296;13.260;2022-12-07T01:17:08;9.77;;;6.20;;
19193;SDS011;9729;52.296;13.260;2022-12-07T01:19:35;12.33;;;7.20;;
19193;SDS011;9729;52.296;13.260;2022-12-07T01:22:02;9.93;;;6.50;;
19193;SDS011;9729;52.296;13.260;2022-12-07T01:24:29;12.97;;;6.33;;
19193;SDS011;9729;52.296;13.260;2022-12-07T01:26:55;12.17;;;6.43;;
19193;SDS011;9729;52.296;13.260;2022-12-07T01:29:21;9.57;;;5.97;;
19193;SDS011;9729;52.296;13.260;2022-12-07T01:31:48;14.53;;;6.47;;
19193;SDS011;9729;52.296;13.260;2022-12-07T01:34:14;8.23;;;5.77;;
19193;SDS011;9729;52.296;13.260;2022-12-07T01:36:41;9.17;;;5.33;;
19193;SDS011;9729;52.296;13.260;2022-12-07T01:39:09;8.53;;;5.60;;
19193;SDS011;9729;52.296;13.260;2022-12-07T01:41:37;11.17;;;6.70;;
19193;SDS011;9729;52.296;13.260;2022-12-07T01:44:18;10.13;;;5.90;;
19193;SDS011;9729;52.296;13.260;2022-12-07T01:46:46;10.67;;;5.87;;
19193;SDS011;9729;52.296;13.260;2022-12-07T01:49:24;8.90;;;5.67;;
19193;SDS011;9729;52.296;13.260;2022-12-07T01:51:55;10.30;;;6.87;;
19193;SDS011;9729;52.296;13.260;2022-12-07T01:54:25;10.83;;;5.87;;
19193;SDS011;9729;52.296;13.260;2022-12-07T01:56:53;9.70;;;6.37;;
19193;SDS011;9729;52.296;13.260;2022-12-07T01:59:21;10.77;;;6.70;;
19193;SDS011;9729;52.296;13.260;2022-12-07T02:01:50;12.80;;;6.57;;
19193;SDS011;9729;52.296;13.260;2022-12-07T02:04:17;13.80;;;7.47;;
19193;SDS011;9729;52.296;13.260;2022-12-07T02:06:44;13.67;;;7.47;;
19193;SDS011;9729;52.296;13.260;2022-12-07T02:09:10;12.00;;;6.23;;
19193;SDS011;9729;52.296;13.260;2022-12-07T02:11:38;9.87;;;5.80;;
19193;SDS011;9729;52.296;13.260;2022-12-07T02:14:05;8.93;;;5.80;;
19193;SDS011;9729;52.296;13.260;2022-12-07T02:16:33;10.57;;;6.57;;
19193;SDS011;9729;52.296;13.260;2022-12-07T02:19:12;10.00;;;5.00;;
19193;SDS011;9729;52.296;13.260;2022-12-07T02:21:59;8.97;;;5.63;;
19193;SDS011;9729;52.296;13.260;2022-12-07T02:24:41;12.43;;;7.10;;
19193;SDS011;9729;52.296;13.260;2022-12-07T02:27:22;9.77;;;5.83;;
19193;SDS011;9729;52.296;13.260;2022-12-07T02:30:03;11.57;;;6.53;;
19193;SDS011;9729;52.296;13.260;2022-12-07T02:32:37;13.07;;;7.00;;
19193;SDS011;9729;52.296;13.260;2022-12-07T02:35:09;12.30;;;5.93;;
19193;SDS011;9729;52.296;13.260;2022-12-07T02:37:39;9.33;;;5.67;;
19193;SDS011;9729;52.296;13.260;2022-12-07T02:40:12;8.33;;;5.20;;
19193;SDS011;9729;52.296;13.260;2022-12-07T02:42:46;9.43;;;5.73;;
19193;SDS011;9729;52.296;13.260;2022-12-07T02:45:18;10.73;;;5.80;;
19193;SDS011;9729;52.296;13.260;2022-12-07T02:47:47;12.07;;;5.83;;
19193;SDS011;9729;52.296;13.260;2022-12-07T02:50:16;13.30;;;5.97;;
19193;SDS011;9729;52.296;13.260;2022-12-07T02:52:43;10.80;;;6.50;;
19193;SDS011;9729;52.296;13.260;2022-12-07T02:55:09;11.13;;;6.63;;
19193;SDS011;9729;52.296;13.260;2022-12-07T02:57:41;12.70;;;6.67;;
19193;SDS011;9729;52.296;13.260;2022-12-07T03:00:13;15.97;;;7.17;;
19193;SDS011;9729;52.296;13.260;2022-12-07T03:02:46;14.30;;;7.33;;
19193;SDS011;9729;52.296;13.260;2022-12-07T03:05:21;13.37;;;8.33;;
19193;SDS011;9729;52.296;13.260;2022-12-07T03:07:54;14.23;;;7.73;;
19193;SDS011;9729;52.296;13.260;2022-12-07T03:10:27;17.00;;;8.10;;
19193;SDS011;9729;52.296;13.260;2022-12-07T03:13:02;16.20;;;7.03;;
19193;SDS011;9729;52.296;13.260;2022-12-07T03:15:31;17.07;;;8.30;;
19193;SDS011;9729;52.296;13.260;2022-12-07T03:18:00;15.17;;;8.17;;
19193;SDS011;9729;52.296;13.260;2022-12-07T03:20:28;14.17;;;8.00;;
19193;SDS011;9729;52.296;13.260;2022-12-07T03:22:55;18.37;;;8.97;;
19193;SDS011;9729;52.296;13.260;2022-12-07T03:25:22;16.97;;;7.97;;
19193;SDS011;9729;52.296;13.260;2022-12-07T03:27:49;19.37;;;8.77;;
19193;SDS011;9729;52.296;13.260;2022-12-07T03:30:21;17.57;;;9.13;;
19193;SDS011;9729;52.296;13.260;2022-12-07T03:32:49;20.07;;;9.37;;
19193;SDS011;9729;52.296;13.260;2022-12-07T03:35:21;23.40;;;9.80;;
19193;SDS011;9729;52.296;13.260;2022-12-07T03:37:51;18.63;;;10.03;;
19193;SDS011;9729;52.296;13.260;2022-12-07T03:40:22;21.30;;;10.70;;
19193;SDS011;9729;52.296;13.260;2022-12-07T03:42:51;40.53;;;15.10;;
19193;SDS011;9729;52.296;13.260;2022-12-07T03:45:18;23.70;;;12.57;;
19193;SDS011;9729;52.296;13.260;2022-12-07T03:47:46;22.50;;;10.57;;
19193;SDS011;9729;52.296;13.260;2022-12-07T03:50:15;22.80;;;11.43;;
19193;SDS011;9729;52.296;13.260;2022-12-07T03:52:51;24.13;;;12.77;;
19193;SDS011;9729;52.296;13.260;2022-12-07T03:55:20;22.27;;;11.37;;
19193;SDS011;9729;52.296;13.260;2022-12-07T03:57:51;27.67;;;12.53;;
19193;SDS011;9729;52.296;13.260;2022-12-07T04:00:21;21.80;;;12.90;;
19193;SDS011;9729;52.296;13.260;2022-12-07T04:02:47;25.30;;;12.57;;
19193;SDS011;9729;52.296;13.260;2022-12-07T04:05:13;28.23;;;13.63;;
19193;SDS011;9729;52.296;13.260;2022-12-07T04:07:41;28.87;;;14.67;;
19193;SDS011;9729;52.296;13.260;2022-12-07T04:10:08;31.50;;;14.57;;
19193;SDS011;9729;52.296;13.260;2022-12-07T04:12:35;27.33;;;14.87;;
19193;SDS011;9729;52.296;13.260;2022-12-07T04:15:01;26.13;;;13.70;;
19193;SDS011;9729;52.296;13.260;2022-12-07T04:17:28;24.80;;;13.67;;
19193;SDS011;9729;52.296;13.260;2022-12-07T04:19:54;29.97;;;14.70;;
19193;SDS011;9729;52.296;13.260;2022-12-07T04:22:20;30.73;;;14.13;;
19193;SDS011;9729;52.296;13.260;2022-12-07T04:24:48;33.20;;;14.20;;
19193;SDS011;9729;52.296;13.260;2022-12-07T04:27:14;36.20;;;16.57;;
19193;SDS011;9729;52.296;13.260;2022-12-07T04:29:41;32.20;;;15.77;;
19193;SDS011;9729;52.296;13.260;2022-12-07T04:32:07;33.07;;;14.87;;
19193;SDS011;9729;52.296;13.260;2022-12-07T04:34:33;36.70;;;17.03;;
19193;SDS011;9729;52.296;13.260;2022-12-07T04:37:00;32.70;;;15.00;;
19193;SDS011;9729;52.296;13.260;2022-12-07T04:39:27;36.60;;;16.17;;
19193;SDS011;9729;52.296;13.260;2022-12-07T04:41:55;36.57;;;16.77;;
19193;SDS011;9729;52.296;13.260;2022-12-07T04:44:23;37.50;;;17.43;;
19193;SDS011;9729;52.296;13.260;2022-12-07T04:46:49;37.47;;;18.00;;
19193;SDS011;9729;52.296;13.260;2022-12-07T04:49:16;36.27;;;15.60;;
19193;SDS011;9729;52.296;13.260;2022-12-07T04:51:43;36.80;;;18.57;;
19193;SDS011;9729;52.296;13.260;2022-12-07T04:54:10;41.07;;;18.30;;
19193;SDS011;9729;52.296;13.260;2022-12-07T04:56:36;44.57;;;20.27;;
19193;SDS011;9729;52.296;13.260;2022-12-07T04:59:05;38.27;;;19.30;;
19193;SDS011;9729;52.296;13.260;2022-12-07T05:01:32;42.63;;;18.13;;
19193;SDS011;9729;52.296;13.260;2022-12-07T05:03:58;43.47;;;18.57;;
19193;SDS011;9729;52.296;13.260;2022-12-07T05:06:25;49.87;;;21.37;;
19193;SDS011;9729;52.296;13.260;2022-12-07T05:08:51;43.43;;;20.43;;
19193;SDS011;9729;52.296;13.260;2022-12-07T05:11:18;44.30;;;20.13;;
19193;SDS011;9729;52.296;13.260;2022-12-07T05:13:58;43.47;;;20.80;;
19193;SDS011;9729;52.296;13.260;2022-12-07T05:16:26;46.10;;;22.03;;
19193;SDS011;9729;52.296;13.260;2022-12-07T05:18:52;42.10;;;21.13;;
19193;SDS011;9729;52.296;13.260;2022-12-07T05:21:19;40.83;;;20.37;;
19193;SDS011;9729;52.296;13.260;2022-12-07T05:23:45;45.30;;;19.90;;
19193;SDS011;9729;52.296;13.260;2022-12-07T05:26:11;43.87;;;19.10;;
19193;SDS011;9729;52.296;13.260;2022-12-07T05:28:38;49.60;;;20.50;;
19193;SDS011;9729;52.296;13.260;2022-12-07T05:31:04;40.37;;;17.67;;
19193;SDS011;9729;52.296;13.260;2022-12-07T05:33:32;41.03;;;19.00;;
19193;SDS011;9729;52.296;13.260;2022-12-07T05:35:58;43.80;;;20.13;;
19193;SDS011;9729;52.296;13.260;2022-12-07T05:38:30;45.23;;;20.57;;
19193;SDS011;9729;52.296;13.260;2022-12-07T05:40:59;48.93;;;21.43;;
19193;SDS011;9729;52.296;13.260;2022-12-07T05:43:26;44.67;;;20.70;;
19193;SDS011;9729;52.296;13.260;2022-12-07T05:45:52;43.93;;;19.00;;
19193;SDS011;9729;52.296;13.260;2022-12-07T05:48:19;47.83;;;20.53;;
19193;SDS011;9729;52.296;13.260;2022-12-07T05:50:48;56.80;;;20.97;;
19193;SDS011;9729;52.296;13.260;2022-12-07T05:53:14;46.77;;;18.60;;
19193;SDS011;9729;52.296;13.260;2022-12-07T05:55:41;43.07;;;19.80;;
19193;SDS011;9729;52.296;13.260;2022-12-07T05:58:07;50.43;;;20.77;;
19193;SDS011;9729;52.296;13.260;2022-12-07T06:01:03;49.60;;;20.30;;
19193;SDS011;9729;52.296;13.260;2022-12-07T06:03:29;43.27;;;18.63;;
19193;SDS011;9729;52.296;13.260;2022-12-07T06:05:57;51.33;;;22.93;;
19193;SDS011;9729;52.296;13.260;2022-12-07T06:08:23;48.63;;;21.33;;
19193;SDS011;9729;52.296;13.260;2022-12-07T06:10:50;44.70;;;19.30;;
19193;SDS011;9729;52.296;13.260;2022-12-07T06:13:36;49.20;;;20.50;;
19193;SDS011;9729;52.296;13.260;2022-12-07T06:16:02;50.60;;;19.47;;
19193;SDS011;9729;52.296;13.260;2022-12-07T06:18:28;45.90;;;21.63;;
19193;SDS011;9729;52.296;13.260;2022-12-07T06:20:54;43.73;;;19.43;;
19193;SDS011;9729;52.296;13.260;2022-12-07T06:23:22;49.13;;;20.57;;
19193;SDS011;9729;52.296;13.260;2022-12-07T06:25:48;41.17;;;19.53;;
19193;SDS011;9729;52.296;13.260;2022-12-07T06:28:15;50.10;;;21.60;;
19193;SDS011;9729;52.296;13.260;2022-12-07T06:30:41;48.67;;;20.77;;
19193;SDS011;9729;52.296;13.260;2022-12-07T06:33:07;46.50;;;21.60;;
19193;SDS011;9729;52.296;13.260;2022-12-07T06:35:34;44.03;;;21.17;;
19193;SDS011;9729;52.296;13.260;2022-12-07T06:38:00;52.87;;;23.13;;
19193;SDS011;9729;52.296;13.260;2022-12-07T06:40:28;44.40;;;20.57;;
19193;SDS011;9729;52.296;13.260;2022-12-07T06:42:55;47.73;;;23.27;;
19193;SDS011;9729;52.296;13.260;2022-12-07T06:45:21;52.80;;;24.70;;
19193;SDS011;9729;52.296;13.260;2022-12-07T06:47:48;50.47;;;22.70;;
19193;SDS011;9729;52.296;13.260;2022-12-07T06:50:14;51.30;;;22.80;;
19193;SDS011;9729;52.296;13.260;2022-12-07T06:52:41;49.47;;;22.73;;
19193;SDS011;9729;52.296;13.260;2022-12-07T06:55:07;54.13;;;23.93;;
19193;SDS011;9729;52.296;13.260;2022-12-07T06:57:35;57.57;;;24.10;;
19193;SDS011;9729;52.296;13.260;2022-12-07T07:00:02;52.67;;;25.07;;
19193;SDS011;9729;52.296;13.260;2022-12-07T07:02:29;57.77;;;24.10;;
19193;SDS011;9729;52.296;13.260;2022-12-07T07:04:55;68.27;;;26.13;;
19193;SDS011;9729;52.296;13.260;2022-12-07T07:07:21;57.90;;;25.53;;
19193;SDS011;9729;52.296;13.260;2022-12-07T07:09:48;52.73;;;23.50;;
19193;SDS011;9729;52.296;13.260;2022-12-07T07:12:14;44.17;;;20.37;;
19193;SDS011;9729;52.296;13.260;2022-12-07T07:14:42;49.70;;;22.90;;
19193;SDS011;9729;52.296;13.260;2022-12-07T07:17:08;50.40;;;24.00;;
19193;SDS011;9729;52.296;13.260;2022-12-07T07:19:35;54.10;;;24.10;;
19193;SDS011;9729;52.296;13.260;2022-12-07T07:22:02;50.57;;;23.93;;
19193;SDS011;9729;52.296;13.260;2022-12-07T07:24:28;47.80;;;22.83;;
19193;SDS011;9729;52.296;13.260;2022-12-07T07:26:55;53.80;;;24.17;;
19193;SDS011;9729;52.296;13.260;2022-12-07T07:29:21;53.60;;;23.60;;
19193;SDS011;9729;52.296;13.260;2022-12-07T07:31:49;54.07;;;27.60;;
19193;SDS011;9729;52.296;13.260;2022-12-07T07:34:15;57.40;;;27.07;;
19193;SDS011;9729;52.296;13.260;2022-12-07T07:36:42;58.10;;;25.10;;
19193;SDS011;9729;52.296;13.260;2022-12-07T07:39:09;52.93;;;25.23;;
19193;SDS011;9729;52.296;13.260;2022-12-07T07:41:37;62.27;;;30.27;;
19193;SDS011;9729;52.296;13.260;2022-12-07T07:44:03;56.07;;;26.23;;
19193;SDS011;9729;52.296;13.260;2022-12-07T07:46:30;52.27;;;27.27;;
19193;SDS011;9729;52.296;13.260;2022-12-07T07:48:59;48.37;;;24.03;;
19193;SDS011;9729;52.296;13.260;2022-12-07T07:51:25;54.23;;;23.77;;
19193;SDS011;9729;52.296;13.260;2022-12-07T07:53:52;57.17;;;24.43;;
19193;SDS011;9729;52.296;13.260;2022-12-07T07:56:18;56.87;;;25.93;;
19193;SDS011;9729;52.296;13.260;2022-12-07T07:58:44;56.73;;;24.07;;
19193;SDS011;9729;52.296;13.260;2022-12-07T08:01:11;51.50;;;22.67;;
19193;SDS011;9729;52.296;13.260;2022-12-07T08:03:38;51.80;;;23.30;;
19193;SDS011;9729;52.296;13.260;2022-12-07T08:06:06;47.97;;;23.17;;
19193;SDS011;9729;52.296;13.260;2022-12-07T08:08:32;48.17;;;21.43;;
19193;SDS011;9729;52.296;13.260;2022-12-07T08:10:59;45.57;;;21.13;;
19193;SDS011;9729;52.296;13.260;2022-12-07T08:13:26;47.23;;;21.87;;
19193;SDS011;9729;52.296;13.260;2022-12-07T08:15:53;42.47;;;19.77;;
19193;SDS011;9729;52.296;13.260;2022-12-07T08:18:19;44.27;;;19.93;;
19193;SDS011;9729;52.296;13.260;2022-12-07T08:20:45;42.00;;;21.53;;
19193;SDS011;9729;52.296;13.260;2022-12-07T08:23:13;42.87;;;20.23;;
19193;SDS011;9729;52.296;13.260;2022-12-07T08:25:39;38.57;;;17.47;;
19193;SDS011;9729;52.296;13.260;2022-12-07T08:28:06;30.90;;;16.17;;
19193;SDS011;9729;52.296;13.260;2022-12-07T08:30:32;29.50;;;14.90;;
19193;SDS011;9729;52.296;13.260;2022-12-07T08:32:59;23.07;;;13.37;;
19193;SDS011;9729;52.296;13.260;2022-12-07T08:35:25;26.20;;;11.07;;
19193;SDS011;9729;52.296;13.260;2022-12-07T08:37:52;23.10;;;10.37;;
19193;SDS011;9729;52.296;13.260;2022-12-07T08:40:20;13.67;;;8.87;;
19193;SDS011;9729;52.296;13.260;2022-12-07T08:42:50;15.40;;;7.43;;
19193;SDS011;9729;52.296;13.260;2022-12-07T08:45:17;11.17;;;6.93;;
19193;SDS011;9729;52.296;13.260;2022-12-07T08:47:45;13.30;;;6.90;;
19193;SDS011;9729;52.296;13.260;2022-12-07T08:50:14;9.70;;;5.97;;
19193;SDS011;9729;52.296;13.260;2022-12-07T08:52:40;14.90;;;6.57;;
19193;SDS011;9729;52.296;13.260;2022-12-07T08:55:09;15.00;;;7.00;;
19193;SDS011;9729;52.296;13.260;2022-12-07T08:57:37;14.00;;;7.90;;
19193;SDS011;9729;52.296;13.260;2022-12-07T09:00:06;11.83;;;7.67;;
19193;SDS011;9729;52.296;13.260;2022-12-07T09:02:33;19.10;;;9.03;;
19193;SDS011;9729;52.296;13.260;2022-12-07T09:04:59;14.97;;;8.27;;
19193;SDS011;9729;52.296;13.260;2022-12-07T09:07:26;19.50;;;8.40;;
19193;SDS011;9729;52.296;13.260;2022-12-07T09:09:53;15.57;;;7.80;;
19193;SDS011;9729;52.296;13.260;2022-12-07T09:12:19;15.90;;;7.07;;
19193;SDS011;9729;52.296;13.260;2022-12-07T09:14:47;16.70;;;7.70;;
19193;SDS011;9729;52.296;13.260;2022-12-07T09:17:14;12.67;;;7.40;;
19193;SDS011;9729;52.296;13.260;2022-12-07T09:19:40;11.07;;;6.67;;
19193;SDS011;9729;52.296;13.260;2022-12-07T09:22:07;9.10;;;5.47;;
19193;SDS011;9729;52.296;13.260;2022-12-07T09:24:34;13.63;;;5.70;;
19193;SDS011;9729;52.296;13.260;2022-12-07T09:27:01;13.50;;;5.63;;
19193;SDS011;9729;52.296;13.260;2022-12-07T09:29:28;8.03;;;5.10;;
19193;SDS011;9729;52.296;13.260;2022-12-07T09:31:56;9.20;;;5.27;;
19193;SDS011;9729;52.296;13.260;2022-12-07T09:34:23;6.60;;;3.80;;
19193;SDS011;9729;52.296;13.260;2022-12-07T09:36:51;7.90;;;5.03;;
19193;SDS011;9729;52.296;13.260;2022-12-07T09:39:18;5.57;;;4.03;;
19193;SDS011;9729;52.296;13.260;2022-12-07T09:41:47;7.57;;;4.37;;
19193;SDS011;9729;52.296;13.260;2022-12-07T09:44:23;5.47;;;3.90;;
19193;SDS011;9729;52.296;13.260;2022-12-07T09:46:57;8.93;;;3.77;;
19193;SDS011;9729;52.296;13.260;2022-12-07T09:49:24;10.17;;;4.67;;
19193;SDS011;9729;52.296;13.260;2022-12-07T09:51:59;7.93;;;4.53;;
19193;SDS011;9729;52.296;13.260;2022-12-07T09:54:27;7.27;;;3.33;;
19193;SDS011;9729;52.296;13.260;2022-12-07T09:56:54;7.53;;;3.73;;
19193;SDS011;9729;52.296;13.260;2022-12-07T09:59:21;6.50;;;4.13;;
19193;SDS011;9729;52.296;13.260;2022-12-07T10:01:48;9.07;;;5.40;;
19193;SDS011;9729;52.296;13.260;2022-12-07T10:04:18;7.13;;;4.57;;
19193;SDS011;9729;52.296;13.260;2022-12-07T10:06:47;7.10;;;4.27;;
19193;SDS011;9729;52.296;13.260;2022-12-07T10:09:16;9.20;;;4.77;;
19193;SDS011;9729;52.296;13.260;2022-12-07T10:12:02;7.50;;;4.00;;
19193;SDS011;9729;52.296;13.260;2022-12-07T10:14:31;7.83;;;4.47;;
19193;SDS011;9729;52.296;13.260;2022-12-07T10:17:00;9.27;;;4.70;;
19193;SDS011;9729;52.296;13.260;2022-12-07T10:19:29;4.77;;;3.80;;
19193;SDS011;9729;52.296;13.260;2022-12-07T10:22:04;10.10;;;4.30;;
19193;SDS011;9729;52.296;13.260;2022-12-07T10:24:33;9.60;;;4.50;;
19193;SDS011;9729;52.296;13.260;2022-12-07T10:27:02;7.90;;;3.90;;
19193;SDS011;9729;52.296;13.260;2022-12-07T10:29:29;7.23;;;4.33;;
19193;SDS011;9729;52.296;13.260;2022-12-07T10:31:59;7.93;;;4.10;;
19193;SDS011;9729;52.296;13.260;2022-12-07T10:34:27;6.80;;;3.93;;
19193;SDS011;9729;52.296;13.260;2022-12-07T10:37:07;4.90;;;3.90;;
19193;SDS011;9729;52.296;13.260;2022-12-07T10:39:42;7.77;;;4.23;;
19193;SDS011;9729;52.296;13.260;2022-12-07T10:42:15;7.97;;;4.60;;
19193;SDS011;9729;52.296;13.260;2022-12-07T10:44:42;8.83;;;4.20;;
19193;SDS011;9729;52.296;13.260;2022-12-07T10:47:12;7.20;;;5.20;;
19193;SDS011;9729;52.296;13.260;2022-12-07T10:50:04;7.60;;;3.83;;
19193;SDS011;9729;52.296;13.260;2022-12-07T10:55:54;10.13;;;4.23;;
19193;SDS011;9729;52.296;13.260;2022-12-07T10:58:31;9.60;;;4.13;;
19193;SDS011;9729;52.296;13.260;2022-12-07T11:01:13;11.10;;;3.97;;
19193;SDS011;9729;52.296;13.260;2022-12-07T11:03:55;4.50;;;3.30;;
19193;SDS011;9729;52.296;13.260;2022-12-07T11:06:35;6.17;;;3.33;;
19193;SDS011;9729;52.296;13.260;2022-12-07T11:09:10;4.90;;;3.13;;
19193;SDS011;9729;52.296;13.260;2022-12-07T11:11:50;5.17;;;3.67;;
19193;SDS011;9729;52.296;13.260;2022-12-07T11:14:24;4.43;;;3.40;;
19193;SDS011;9729;52.296;13.260;2022-12-07T11:16:57;4.80;;;3.70;;
19193;SDS011;9729;52.296;13.260;2022-12-07T11:22:18;5.93;;;3.93;;
19193;SDS011;9729;52.296;13.260;2022-12-07T11:24:49;7.00;;;3.37;;
19193;SDS011;9729;52.296;13.260;2022-12-07T11:27:20;6.00;;;3.30;;
19193;SDS011;9729;52.296;13.260;2022-12-07T11:29:54;6.40;;;3.70;;
19193;SDS011;9729;52.296;13.260;2022-12-07T11:32:32;7.10;;;3.30;;
19193;SDS011;9729;52.296;13.260;2022-12-07T11:35:08;6.13;;;3.10;;
19193;SDS011;9729;52.296;13.260;2022-12-07T11:37:39;16.27;;;3.33;;
19193;SDS011;9729;52.296;13.260;2022-12-07T11:40:13;9.57;;;2.80;;
19193;SDS011;9729;52.296;13.260;2022-12-07T11:42:42;9.63;;;3.57;;
19193;SDS011;9729;52.296;13.260;2022-12-07T11:45:13;15.60;;;4.87;;
19193;SDS011;9729;52.296;13.260;2022-12-07T11:47:45;5.60;;;3.23;;
19193;SDS011;9729;52.296;13.260;2022-12-07T11:50:25;6.83;;;3.00;;
19193;SDS011;9729;52.296;13.260;2022-12-07T11:52:58;3.17;;;2.70;;
19193;SDS011;9729;52.296;13.260;2022-12-07T11:55:26;7.50;;;2.83;;
19193;SDS011;9729;52.296;13.260;2022-12-07T11:57:58;6.90;;;3.60;;
19193;SDS011;9729;52.296;13.260;2022-12-07T12:00:30;7.57;;;3.87;;
19193;SDS011;9729;52.296;13.260;2022-12-07T12:02:57;9.17;;;4.37;;
19193;SDS011;9729;52.296;13.260;2022-12-07T12:05:27;8.90;;;3.83;;
19193;SDS011;9729;52.296;13.260;2022-12-07T12:07:57;6.73;;;3.10;;
19193;SDS011;9729;52.296;13.260;2022-12-07T12:10:31;7.30;;;3.63;;
19193;SDS011;9729;52.296;13.260;2022-12-07T12:13:08;7.63;;;4.70;;
19193;SDS011;9729;52.296;13.260;2022-12-07T12:15:48;13.07;;;6.40;;
19193;SDS011;9729;52.296;13.260;2022-12-07T12:18:29;16.30;;;6.53;;
19193;SDS011;9729;52.296;13.260;2022-12-07T12:21:03;11.83;;;3.50;;
19193;SDS011;9729;52.296;13.260;2022-12-07T12:23:35;8.13;;;3.53;;
19193;SDS011;9729;52.296;13.260;2022-12-07T12:26:05;5.93;;;4.20;;
19193;SDS011;9729;52.296;13.260;2022-12-07T12:28:34;5.43;;;2.50;;
19193;SDS011;9729;52.296;13.260;2022-12-07T12:31:04;4.03;;;3.10;;
19193;SDS011;9729;52.296;13.260;2022-12-07T12:33:35;9.50;;;3.10;;
19193;SDS011;9729;52.296;13.260;2022-12-07T12:36:16;5.53;;;2.40;;
19193;SDS011;9729;52.296;13.260;2022-12-07T12:38:49;3.67;;;2.03;;
19193;SDS011;9729;52.296;13.260;2022-12-07T12:44:40;7.77;;;3.17;;
19193;SDS011;9729;52.296;13.260;2022-12-07T12:53:04;8.80;;;2.57;;
19193;SDS011;9729;52.296;13.260;2022-12-07T12:58:46;9.47;;;3.23;;
19193;SDS011;9729;52.296;13.260;2022-12-07T13:01:36;14.03;;;3.60;;
19193;SDS011;9729;52.296;13.260;2022-12-07T13:04:25;6.53;;;3.20;;
19193;SDS011;9729;52.296;13.260;2022-12-07T13:07:09;11.37;;;4.80;;
19193;SDS011;9729;52.296;13.260;2022-12-07T13:09:37;5.07;;;3.43;;
19193;SDS011;9729;52.296;13.260;2022-12-07T13:12:13;9.30;;;3.13;;
19193;SDS011;9729;52.296;13.260;2022-12-07T13:23:12;5.93;;;2.80;;
19193;SDS011;9729;52.296;13.260;2022-12-07T13:25:41;10.40;;;3.30;;
19193;SDS011;9729;52.296;13.260;2022-12-07T13:28:15;6.93;;;3.07;;
19193;SDS011;9729;52.296;13.260;2022-12-07T13:30:45;7.60;;;2.80;;
19193;SDS011;9729;52.296;13.260;2022-12-07T13:33:15;12.10;;;3.83;;
19193;SDS011;9729;52.296;13.260;2022-12-07T13:35:44;14.40;;;3.27;;
19193;SDS011;9729;52.296;13.260;2022-12-07T13:38:16;10.40;;;2.97;;
19193;SDS011;9729;52.296;13.260;2022-12-07T13:40:59;7.97;;;2.57;;
19193;SDS011;9729;52.296;13.260;2022-12-07T13:43:28;9.73;;;3.43;;
19193;SDS011;9729;52.296;13.260;2022-12-07T13:45:55;8.80;;;3.03;;
19193;SDS011;9729;52.296;13.260;2022-12-07T13:48:24;5.60;;;2.70;;
19193;SDS011;9729;52.296;13.260;2022-12-07T13:50:56;6.07;;;2.90;;
19193;SDS011;9729;52.296;13.260;2022-12-07T13:53:23;8.53;;;4.13;;
19193;SDS011;9729;52.296;13.260;2022-12-07T13:55:52;8.77;;;3.37;;
19193;SDS011;9729;52.296;13.260;2022-12-07T13:58:19;11.63;;;4.87;;
19193;SDS011;9729;52.296;13.260;2022-12-07T14:00:47;8.77;;;4.20;;
19193;SDS011;9729;52.296;13.260;2022-12-07T14:03:30;5.13;;;3.00;;
19193;SDS011;9729;52.296;13.260;2022-12-07T14:06:05;7.53;;;3.97;;
19193;SDS011;9729;52.296;13.260;2022-12-07T14:08:33;8.40;;;3.13;;
19193;SDS011;9729;52.296;13.260;2022-12-07T14:10:59;7.97;;;3.53;;
19193;SDS011;9729;52.296;13.260;2022-12-07T14:13:27;4.43;;;3.03;;
19193;SDS011;9729;52.296;13.260;2022-12-07T14:15:58;6.07;;;2.97;;
19193;SDS011;9729;52.296;13.260;2022-12-07T14:18:26;6.73;;;2.90;;
19193;SDS011;9729;52.296;13.260;2022-12-07T14:21:02;7.93;;;3.60;;
19193;SDS011;9729;52.296;13.260;2022-12-07T14:23:29;6.53;;;3.27;;
19193;SDS011;9729;52.296;13.260;2022-12-07T14:26:04;5.77;;;3.20;;
19193;SDS011;9729;52.296;13.260;2022-12-07T14:28:32;6.80;;;3.57;;
19193;SDS011;9729;52.296;13.260;2022-12-07T14:31:01;10.77;;;4.17;;
19193;SDS011;9729;52.296;13.260;2022-12-07T14:33:28;7.67;;;3.30;;
19193;SDS011;9729;52.296;13.260;2022-12-07T14:35:55;17.40;;;3.73;;
19193;SDS011;9729;52.296;13.260;2022-12-07T14:38:22;12.70;;;3.30;;
19193;SDS011;9729;52.296;13.260;2022-12-07T14:40:50;9.37;;;2.63;;
19193;SDS011;9729;52.296;13.260;2022-12-07T14:43:17;11.20;;;3.97;;
19193;SDS011;9729;52.296;13.260;2022-12-07T14:45:44;10.20;;;3.27;;
19193;SDS011;9729;52.296;13.260;2022-12-07T14:48:12;13.57;;;4.00;;
19193;SDS011;9729;52.296;13.260;2022-12-07T14:50:40;13.60;;;4.67;;
19193;SDS011;9729;52.296;13.260;2022-12-07T14:53:10;6.13;;;3.13;;
19193;SDS011;9729;52.296;13.260;2022-12-07T14:55:39;7.83;;;3.27;;
19193;SDS011;9729;52.296;13.260;2022-12-07T14:58:05;13.23;;;3.97;;
19193;SDS011;9729;52.296;13.260;2022-12-07T15:00:32;9.93;;;3.67;;
19193;SDS011;9729;52.296;13.260;2022-12-07T15:02:59;8.83;;;3.63;;
19193;SDS011;9729;52.296;13.260;2022-12-07T15:05:26;12.70;;;3.20;;
19193;SDS011;9729;52.296;13.260;2022-12-07T15:07:53;7.27;;;4.00;;
19193;SDS011;9729;52.296;13.260;2022-12-07T15:10:20;22.40;;;10.23;;
19193;SDS011;9729;52.296;13.260;2022-12-07T15:12:47;12.57;;;5.80;;